Terminal Aerodrome Forecast
Issued by NWS

Home | Current Version | Previous Version | Text Only | Print | Product List | Glossary Off
Versions: 1 2 3 4 5 6 7 8 9 10 11 12 13 14 15 16 17 18

404
FTUS43 KOAX 270520
TAFCDR
TAF
KCDR 270520Z 2706/2806 09006KT P6SM VCSH SCT008
     FM271400 05009KT P6SM SCT012 OVC100
     FM272200 08013KT P6SM VCTS BKN100CB
     FM280000 11010KT P6SM -SHRA VCTS BKN050CB=

USA.gov is the U.S. government's official web portal to all federal, state and local government web resources and services.